sensor_id;sensor_type;location;lat;lon;timestamp;temperature;humidity
48998;DHT22;34807;51.456;7.244;2022-07-29T00:01:25;20.90;63.20
48998;DHT22;34807;51.456;7.244;2022-07-29T00:03:50;20.90;63.20
48998;DHT22;34807;51.456;7.244;2022-07-29T00:06:16;20.80;63.10
48998;DHT22;34807;51.456;7.244;2022-07-29T00:08:41;20.80;63.20
48998;DHT22;34807;51.456;7.244;2022-07-29T00:11:07;20.80;63.20
48998;DHT22;34807;51.456;7.244;2022-07-29T00:13:32;20.80;63.10
48998;DHT22;34807;51.456;7.244;2022-07-29T00:15:58;20.80;63.20
48998;DHT22;34807;51.456;7.244;2022-07-29T00:18:23;20.70;63.10
48998;DHT22;34807;51.456;7.244;2022-07-29T00:20:49;20.70;63.20
48998;DHT22;34807;51.456;7.244;2022-07-29T00:23:14;20.70;63.20
48998;DHT22;34807;51.456;7.244;2022-07-29T00:25:40;20.70;63.10
48998;DHT22;34807;51.456;7.244;2022-07-29T00:28:05;20.70;63.40
48998;DHT22;34807;51.456;7.244;2022-07-29T00:30:31;20.70;63.90
48998;DHT22;34807;51.456;7.244;2022-07-29T00:32:56;20.70;63.20
48998;DHT22;34807;51.456;7.244;2022-07-29T00:35:22;20.60;63.10
48998;DHT22;34807;51.456;7.244;2022-07-29T00:38:06;20.60;63.20
48998;DHT22;34807;51.456;7.244;2022-07-29T00:40:31;20.60;63.90
48998;DHT22;34807;51.456;7.244;2022-07-29T00:42:57;20.60;63.30
48998;DHT22;34807;51.456;7.244;2022-07-29T00:45:22;20.60;63.40
48998;DHT22;34807;51.456;7.244;2022-07-29T00:47:48;20.60;63.40
48998;DHT22;34807;51.456;7.244;2022-07-29T00:50:14;20.50;63.30
48998;DHT22;34807;51.456;7.244;2022-07-29T00:52:39;20.50;63.40
48998;DHT22;34807;51.456;7.244;2022-07-29T00:55:06;20.50;64.00
48998;DHT22;34807;51.456;7.244;2022-07-29T00:57:32;20.50;63.30
48998;DHT22;34807;51.456;7.244;2022-07-29T00:59:58;20.50;63.40
48998;DHT22;34807;51.456;7.244;2022-07-29T01:02:23;20.50;63.30
48998;DHT22;34807;51.456;7.244;2022-07-29T01:04:49;20.40;63.40
48998;DHT22;34807;51.456;7.244;2022-07-29T01:07:15;20.40;63.40
48998;DHT22;34807;51.456;7.244;2022-07-29T01:09:41;20.40;63.40
48998;DHT22;34807;51.456;7.244;2022-07-29T01:12:07;20.40;63.10
48998;DHT22;34807;51.456;7.244;2022-07-29T01:14:33;20.30;63.30
48998;DHT22;34807;51.456;7.244;2022-07-29T01:17:00;20.30;63.40
48998;DHT22;34807;51.456;7.244;2022-07-29T01:21:57;20.30;63.40
48998;DHT22;34807;51.456;7.244;2022-07-29T01:29:32;20.30;63.60
48998;DHT22;34807;51.456;7.244;2022-07-29T01:37:18;20.20;63.60
48998;DHT22;34807;51.456;7.244;2022-07-29T01:39:45;20.20;63.60
48998;DHT22;34807;51.456;7.244;2022-07-29T01:44:53;20.10;63.70
48998;DHT22;34807;51.456;7.244;2022-07-29T01:47:21;20.10;63.80
48998;DHT22;34807;51.456;7.244;2022-07-29T01:49:49;20.10;63.80
48998;DHT22;34807;51.456;7.244;2022-07-29T01:52:36;20.10;63.70
48998;DHT22;34807;51.456;7.244;2022-07-29T01:55:04;20.10;63.80
48998;DHT22;34807;51.456;7.244;2022-07-29T01:57:30;20.10;63.90
48998;DHT22;34807;51.456;7.244;2022-07-29T01:59:57;20.00;63.80
48998;DHT22;34807;51.456;7.244;2022-07-29T02:02:23;20.00;63.90
48998;DHT22;34807;51.456;7.244;2022-07-29T02:04:49;20.00;63.90
48998;DHT22;34807;51.456;7.244;2022-07-29T02:07:17;20.00;63.90
48998;DHT22;34807;51.456;7.244;2022-07-29T02:09:43;20.00;64.00
48998;DHT22;34807;51.456;7.244;2022-07-29T02:12:09;19.90;64.10
48998;DHT22;34807;51.456;7.244;2022-07-29T02:14:39;19.90;64.00
48998;DHT22;34807;51.456;7.244;2022-07-29T02:17:05;19.90;64.10
48998;DHT22;34807;51.456;7.244;2022-07-29T02:19:32;19.90;64.10
48998;DHT22;34807;51.456;7.244;2022-07-29T02:21:57;19.90;64.10
48998;DHT22;34807;51.456;7.244;2022-07-29T02:24:23;19.90;64.20
48998;DHT22;34807;51.456;7.244;2022-07-29T02:26:50;19.80;64.10
48998;DHT22;34807;51.456;7.244;2022-07-29T02:29:16;19.80;64.90
48998;DHT22;34807;51.456;7.244;2022-07-29T02:31:42;19.80;64.20
48998;DHT22;34807;51.456;7.244;2022-07-29T02:34:08;19.80;64.30
48998;DHT22;34807;51.456;7.244;2022-07-29T02:36:35;19.80;64.20
48998;DHT22;34807;51.456;7.244;2022-07-29T02:39:02;19.80;64.40
48998;DHT22;34807;51.456;7.244;2022-07-29T02:41:47;19.70;64.40
48998;DHT22;34807;51.456;7.244;2022-07-29T02:44:15;19.70;64.40
48998;DHT22;34807;51.456;7.244;2022-07-29T02:47:04;19.70;64.40
48998;DHT22;34807;51.456;7.244;2022-07-29T02:49:48;19.70;64.50
48998;DHT22;34807;51.456;7.244;2022-07-29T02:52:12;19.70;64.60
48998;DHT22;34807;51.456;7.244;2022-07-29T02:59:57;19.60;64.50
48998;DHT22;34807;51.456;7.244;2022-07-29T03:02:23;19.60;64.50
48998;DHT22;34807;51.456;7.244;2022-07-29T03:04:49;19.60;64.60
48998;DHT22;34807;51.456;7.244;2022-07-29T03:07:15;19.60;64.50
48998;DHT22;34807;51.456;7.244;2022-07-29T03:09:43;19.60;64.60
48998;DHT22;34807;51.456;7.244;2022-07-29T03:12:09;19.60;64.70
48998;DHT22;34807;51.456;7.244;2022-07-29T03:14:35;19.50;64.60
48998;DHT22;34807;51.456;7.244;2022-07-29T03:17:01;19.50;64.70
48998;DHT22;34807;51.456;7.244;2022-07-29T03:19:27;19.50;64.70
48998;DHT22;34807;51.456;7.244;2022-07-29T03:21:55;19.50;64.80
48998;DHT22;34807;51.456;7.244;2022-07-29T03:24:24;19.50;64.80
48998;DHT22;34807;51.456;7.244;2022-07-29T03:26:50;19.50;64.80
48998;DHT22;34807;51.456;7.244;2022-07-29T03:29:15;19.50;64.90
48998;DHT22;34807;51.456;7.244;2022-07-29T03:31:40;19.50;64.90
48998;DHT22;34807;51.456;7.244;2022-07-29T03:34:06;19.50;64.90
48998;DHT22;34807;51.456;7.244;2022-07-29T03:36:31;19.40;64.90
48998;DHT22;34807;51.456;7.244;2022-07-29T03:38:57;19.50;65.10
48998;DHT22;34807;51.456;7.244;2022-07-29T03:41:23;19.40;65.00
48998;DHT22;34807;51.456;7.244;2022-07-29T03:43:49;19.40;64.90
48998;DHT22;34807;51.456;7.244;2022-07-29T03:46:16;19.40;65.10
48998;DHT22;34807;51.456;7.244;2022-07-29T03:48:44;19.40;65.10
48998;DHT22;34807;51.456;7.244;2022-07-29T03:51:11;19.40;65.00
48998;DHT22;34807;51.456;7.244;2022-07-29T03:53:37;19.40;65.00
48998;DHT22;34807;51.456;7.244;2022-07-29T03:56:03;19.40;64.90
48998;DHT22;34807;51.456;7.244;2022-07-29T03:58:28;19.40;64.90
48998;DHT22;34807;51.456;7.244;2022-07-29T04:00:55;19.30;65.60
48998;DHT22;34807;51.456;7.244;2022-07-29T04:03:22;19.30;65.00
48998;DHT22;34807;51.456;7.244;2022-07-29T04:06:01;19.40;65.10
48998;DHT22;34807;51.456;7.244;2022-07-29T04:08:26;19.30;64.90
48998;DHT22;34807;51.456;7.244;2022-07-29T04:10:52;19.30;65.00
48998;DHT22;34807;51.456;7.244;2022-07-29T04:13:18;19.30;65.00
48998;DHT22;34807;51.456;7.244;2022-07-29T04:15:44;19.30;65.10
48998;DHT22;34807;51.456;7.244;2022-07-29T04:18:09;19.30;65.00
48998;DHT22;34807;51.456;7.244;2022-07-29T04:20:35;19.30;65.00
48998;DHT22;34807;51.456;7.244;2022-07-29T04:23:00;19.30;65.00
48998;DHT22;34807;51.456;7.244;2022-07-29T04:25:26;19.30;64.80
48998;DHT22;34807;51.456;7.244;2022-07-29T04:27:51;19.30;65.10
48998;DHT22;34807;51.456;7.244;2022-07-29T04:30:26;19.30;65.00
48998;DHT22;34807;51.456;7.244;2022-07-29T04:32:51;19.30;64.40
48998;DHT22;34807;51.456;7.244;2022-07-29T04:35:18;19.30;65.10
48998;DHT22;34807;51.456;7.244;2022-07-29T04:37:43;19.30;64.90
48998;DHT22;34807;51.456;7.244;2022-07-29T04:40:09;19.30;64.60
48998;DHT22;34807;51.456;7.244;2022-07-29T04:42:34;19.20;64.90
48998;DHT22;34807;51.456;7.244;2022-07-29T04:45:00;19.20;65.10
48998;DHT22;34807;51.456;7.244;2022-07-29T04:47:25;19.30;65.10
48998;DHT22;34807;51.456;7.244;2022-07-29T04:49:51;19.30;65.10
48998;DHT22;34807;51.456;7.244;2022-07-29T04:52:16;19.30;64.50
48998;DHT22;34807;51.456;7.244;2022-07-29T04:54:42;19.20;65.00
48998;DHT22;34807;51.456;7.244;2022-07-29T04:57:07;19.20;65.00
48998;DHT22;34807;51.456;7.244;2022-07-29T04:59:33;19.20;65.00
48998;DHT22;34807;51.456;7.244;2022-07-29T05:01:58;19.20;64.70
48998;DHT22;34807;51.456;7.244;2022-07-29T05:04:24;19.20;64.60
48998;DHT22;34807;51.456;7.244;2022-07-29T05:06:49;19.20;65.00
48998;DHT22;34807;51.456;7.244;2022-07-29T05:09:15;19.20;65.00
48998;DHT22;34807;51.456;7.244;2022-07-29T05:11:41;19.20;65.00
48998;DHT22;34807;51.456;7.244;2022-07-29T05:14:06;19.20;64.90
48998;DHT22;34807;51.456;7.244;2022-07-29T05:16:32;19.20;64.90
48998;DHT22;34807;51.456;7.244;2022-07-29T05:18:57;19.20;64.90
48998;DHT22;34807;51.456;7.244;2022-07-29T05:21:23;19.20;65.10
48998;DHT22;34807;51.456;7.244;2022-07-29T05:23:48;19.20;65.10
48998;DHT22;34807;51.456;7.244;2022-07-29T05:26:14;19.20;65.20
48998;DHT22;34807;51.456;7.244;2022-07-29T05:28:39;19.20;65.10
48998;DHT22;34807;51.456;7.244;2022-07-29T05:31:04;19.20;65.10
48998;DHT22;34807;51.456;7.244;2022-07-29T05:33:30;19.20;65.20
48998;DHT22;34807;51.456;7.244;2022-07-29T05:35:56;19.20;64.90
48998;DHT22;34807;51.456;7.244;2022-07-29T05:38:22;19.20;65.10
48998;DHT22;34807;51.456;7.244;2022-07-29T05:40:48;19.20;65.20
48998;DHT22;34807;51.456;7.244;2022-07-29T05:43:13;19.20;65.20
48998;DHT22;34807;51.456;7.244;2022-07-29T05:45:39;19.20;65.20
48998;DHT22;34807;51.456;7.244;2022-07-29T05:48:04;19.20;65.20
48998;DHT22;34807;51.456;7.244;2022-07-29T05:50:30;19.30;65.20
48998;DHT22;34807;51.456;7.244;2022-07-29T05:52:55;19.30;65.30
48998;DHT22;34807;51.456;7.244;2022-07-29T05:55:21;19.30;65.20
48998;DHT22;34807;51.456;7.244;2022-07-29T05:57:46;19.30;65.20
48998;DHT22;34807;51.456;7.244;2022-07-29T06:00:12;19.20;65.20
48998;DHT22;34807;51.456;7.244;2022-07-29T06:02:37;19.30;65.30
48998;DHT22;34807;51.456;7.244;2022-07-29T06:05:03;19.30;65.40
48998;DHT22;34807;51.456;7.244;2022-07-29T06:07:28;19.30;65.40
48998;DHT22;34807;51.456;7.244;2022-07-29T06:09:54;19.30;65.30
48998;DHT22;34807;51.456;7.244;2022-07-29T06:12:20;19.30;65.30
48998;DHT22;34807;51.456;7.244;2022-07-29T06:14:45;19.30;65.20
48998;DHT22;34807;51.456;7.244;2022-07-29T06:17:11;19.40;65.30
48998;DHT22;34807;51.456;7.244;2022-07-29T06:19:36;19.40;65.40
48998;DHT22;34807;51.456;7.244;2022-07-29T06:22:02;19.40;65.40
48998;DHT22;34807;51.456;7.244;2022-07-29T06:24:28;19.40;65.30
48998;DHT22;34807;51.456;7.244;2022-07-29T06:26:53;19.40;65.40
48998;DHT22;34807;51.456;7.244;2022-07-29T06:29:19;19.50;65.40
48998;DHT22;34807;51.456;7.244;2022-07-29T06:31:44;19.50;65.40
48998;DHT22;34807;51.456;7.244;2022-07-29T06:34:10;19.50;65.40
48998;DHT22;34807;51.456;7.244;2022-07-29T06:36:36;19.50;65.50
48998;DHT22;34807;51.456;7.244;2022-07-29T06:39:05;19.60;65.40
48998;DHT22;34807;51.456;7.244;2022-07-29T06:41:31;19.60;65.40
48998;DHT22;34807;51.456;7.244;2022-07-29T06:43:57;19.50;65.50
48998;DHT22;34807;51.456;7.244;2022-07-29T06:46:22;19.60;65.60
48998;DHT22;34807;51.456;7.244;2022-07-29T06:48:48;19.60;65.50
48998;DHT22;34807;51.456;7.244;2022-07-29T06:51:13;19.60;65.50
48998;DHT22;34807;51.456;7.244;2022-07-29T06:53:39;19.60;65.50
48998;DHT22;34807;51.456;7.244;2022-07-29T06:56:06;19.60;65.40
48998;DHT22;34807;51.456;7.244;2022-07-29T06:58:33;19.60;65.50
48998;DHT22;34807;51.456;7.244;2022-07-29T07:01:00;19.60;65.50
48998;DHT22;34807;51.456;7.244;2022-07-29T07:03:26;19.70;65.50
48998;DHT22;34807;51.456;7.244;2022-07-29T07:05:52;19.70;65.60
48998;DHT22;34807;51.456;7.244;2022-07-29T07:08:18;19.70;65.50
48998;DHT22;34807;51.456;7.244;2022-07-29T07:10:44;19.70;65.50
48998;DHT22;34807;51.456;7.244;2022-07-29T07:13:10;19.80;65.40
48998;DHT22;34807;51.456;7.244;2022-07-29T07:15:36;19.80;65.40
48998;DHT22;34807;51.456;7.244;2022-07-29T07:18:02;19.90;65.40
48998;DHT22;34807;51.456;7.244;2022-07-29T07:20:27;19.90;65.30
48998;DHT22;34807;51.456;7.244;2022-07-29T07:22:53;20.00;65.30
48998;DHT22;34807;51.456;7.244;2022-07-29T07:25:18;20.00;65.20
48998;DHT22;34807;51.456;7.244;2022-07-29T07:27:44;20.00;65.20
48998;DHT22;34807;51.456;7.244;2022-07-29T07:30:10;20.10;65.20
48998;DHT22;34807;51.456;7.244;2022-07-29T07:32:35;20.20;65.20
48998;DHT22;34807;51.456;7.244;2022-07-29T07:35:01;20.20;65.10
48998;DHT22;34807;51.456;7.244;2022-07-29T07:37:26;20.20;65.10
48998;DHT22;34807;51.456;7.244;2022-07-29T07:39:52;20.30;65.10
48998;DHT22;34807;51.456;7.244;2022-07-29T07:42:18;20.30;65.00
48998;DHT22;34807;51.456;7.244;2022-07-29T07:44:44;20.30;64.90
48998;DHT22;34807;51.456;7.244;2022-07-29T07:47:14;20.40;65.00
48998;DHT22;34807;51.456;7.244;2022-07-29T07:49:40;20.40;65.10
48998;DHT22;34807;51.456;7.244;2022-07-29T07:52:05;20.40;65.10
48998;DHT22;34807;51.456;7.244;2022-07-29T07:54:31;20.40;65.10
48998;DHT22;34807;51.456;7.244;2022-07-29T07:56:56;20.40;65.20
48998;DHT22;34807;51.456;7.244;2022-07-29T07:59:22;20.40;65.30
48998;DHT22;34807;51.456;7.244;2022-07-29T08:01:48;20.40;65.30
48998;DHT22;34807;51.456;7.244;2022-07-29T08:04:14;20.40;65.40
48998;DHT22;34807;51.456;7.244;2022-07-29T08:06:40;20.40;65.30
48998;DHT22;34807;51.456;7.244;2022-07-29T08:09:05;20.50;65.40
48998;DHT22;34807;51.456;7.244;2022-07-29T08:11:31;20.50;65.40
48998;DHT22;34807;51.456;7.244;2022-07-29T08:13:57;20.50;65.40
48998;DHT22;34807;51.456;7.244;2022-07-29T08:16:22;20.50;65.30
48998;DHT22;34807;51.456;7.244;2022-07-29T08:18:50;20.60;65.30
48998;DHT22;34807;51.456;7.244;2022-07-29T08:21:16;20.60;65.30
48998;DHT22;34807;51.456;7.244;2022-07-29T08:23:42;20.60;66.00
48998;DHT22;34807;51.456;7.244;2022-07-29T08:26:14;20.70;65.30
48998;DHT22;34807;51.456;7.244;2022-07-29T08:28:42;20.70;65.30
48998;DHT22;34807;51.456;7.244;2022-07-29T08:31:10;20.70;65.20
48998;DHT22;34807;51.456;7.244;2022-07-29T08:33:36;20.80;65.10
48998;DHT22;34807;51.456;7.244;2022-07-29T08:36:02;20.80;65.10
48998;DHT22;34807;51.456;7.244;2022-07-29T08:38:27;20.80;65.10
48998;DHT22;34807;51.456;7.244;2022-07-29T08:40:53;20.80;65.00
48998;DHT22;34807;51.456;7.244;2022-07-29T08:43:19;20.80;64.90
48998;DHT22;34807;51.456;7.244;2022-07-29T08:45:45;20.80;64.90
48998;DHT22;34807;51.456;7.244;2022-07-29T08:48:12;20.90;64.90
48998;DHT22;34807;51.456;7.244;2022-07-29T08:50:37;20.90;65.00
48998;DHT22;34807;51.456;7.244;2022-07-29T08:53:03;20.90;65.00
48998;DHT22;34807;51.456;7.244;2022-07-29T08:55:29;20.90;65.00
48998;DHT22;34807;51.456;7.244;2022-07-29T08:57:56;20.80;65.00
48998;DHT22;34807;51.456;7.244;2022-07-29T09:00:22;20.90;65.20
48998;DHT22;34807;51.456;7.244;2022-07-29T09:02:50;20.80;65.10
48998;DHT22;34807;51.456;7.244;2022-07-29T09:05:17;20.90;65.20
48998;DHT22;34807;51.456;7.244;2022-07-29T09:07:42;20.80;65.20
48998;DHT22;34807;51.456;7.244;2022-07-29T09:10:09;20.80;65.20
48998;DHT22;34807;51.456;7.244;2022-07-29T09:12:35;20.80;65.30
48998;DHT22;34807;51.456;7.244;2022-07-29T09:15:00;20.80;65.30
48998;DHT22;34807;51.456;7.244;2022-07-29T09:17:45;20.80;65.30
48998;DHT22;34807;51.456;7.244;2022-07-29T09:20:12;20.80;65.40
48998;DHT22;34807;51.456;7.244;2022-07-29T09:22:38;20.80;65.50
48998;DHT22;34807;51.456;7.244;2022-07-29T09:25:03;20.80;65.60
48998;DHT22;34807;51.456;7.244;2022-07-29T09:27:29;20.80;65.50
48998;DHT22;34807;51.456;7.244;2022-07-29T09:32:29;20.80;65.70
48998;DHT22;34807;51.456;7.244;2022-07-29T09:35:14;20.80;65.60
48998;DHT22;34807;51.456;7.244;2022-07-29T09:37:39;20.80;65.60
48998;DHT22;34807;51.456;7.244;2022-07-29T09:40:15;20.80;65.70
48998;DHT22;34807;51.456;7.244;2022-07-29T09:42:41;20.80;65.70
48998;DHT22;34807;51.456;7.244;2022-07-29T09:45:06;20.80;65.90
48998;DHT22;34807;51.456;7.244;2022-07-29T09:47:45;20.80;65.90
48998;DHT22;34807;51.456;7.244;2022-07-29T09:50:12;20.80;65.80
48998;DHT22;34807;51.456;7.244;2022-07-29T09:52:47;20.80;65.90
48998;DHT22;34807;51.456;7.244;2022-07-29T09:55:13;20.80;65.90
48998;DHT22;34807;51.456;7.244;2022-07-29T09:57:39;20.70;65.90
48998;DHT22;34807;51.456;7.244;2022-07-29T10:02:32;20.70;66.00
48998;DHT22;34807;51.456;7.244;2022-07-29T10:04:58;20.70;66.10
48998;DHT22;34807;51.456;7.244;2022-07-29T10:07:24;20.70;66.20
48998;DHT22;34807;51.456;7.244;2022-07-29T10:09:53;20.70;66.20
48998;DHT22;34807;51.456;7.244;2022-07-29T10:12:19;20.70;66.20
48998;DHT22;34807;51.456;7.244;2022-07-29T10:14:45;20.70;66.30
48998;DHT22;34807;51.456;7.244;2022-07-29T10:17:11;20.70;66.30
48998;DHT22;34807;51.456;7.244;2022-07-29T10:19:37;20.70;66.30
48998;DHT22;34807;51.456;7.244;2022-07-29T10:22:05;20.70;66.40
48998;DHT22;34807;51.456;7.244;2022-07-29T10:24:31;20.70;66.50
48998;DHT22;34807;51.456;7.244;2022-07-29T10:26:57;20.70;66.40
48998;DHT22;34807;51.456;7.244;2022-07-29T10:29:23;20.70;66.40
48998;DHT22;34807;51.456;7.244;2022-07-29T10:34:18;20.70;66.50
48998;DHT22;34807;51.456;7.244;2022-07-29T10:44:20;20.70;66.50
48998;DHT22;34807;51.456;7.244;2022-07-29T10:46:47;20.70;66.60
48998;DHT22;34807;51.456;7.244;2022-07-29T10:49:17;20.70;66.70
48998;DHT22;34807;51.456;7.244;2022-07-29T10:54:18;20.70;66.90
48998;DHT22;34807;51.456;7.244;2022-07-29T10:56:43;20.70;66.80
48998;DHT22;34807;51.456;7.244;2022-07-29T11:01:48;20.70;66.80
48998;DHT22;34807;51.456;7.244;2022-07-29T11:07:09;20.70;66.80
48998;DHT22;34807;51.456;7.244;2022-07-29T11:09:34;20.70;66.90
48998;DHT22;34807;51.456;7.244;2022-07-29T11:12:00;20.70;67.00
48998;DHT22;34807;51.456;7.244;2022-07-29T11:17:09;20.70;67.00
48998;DHT22;34807;51.456;7.244;2022-07-29T11:19:35;20.70;67.10
48998;DHT22;34807;51.456;7.244;2022-07-29T11:22:01;20.70;67.80
48998;DHT22;34807;51.456;7.244;2022-07-29T11:24:28;20.70;67.20
48998;DHT22;34807;51.456;7.244;2022-07-29T11:27:09;20.70;67.40
48998;DHT22;34807;51.456;7.244;2022-07-29T11:29:39;20.70;67.60
48998;DHT22;34807;51.456;7.244;2022-07-29T11:32:12;20.70;67.60
48998;DHT22;34807;51.456;7.244;2022-07-29T11:34:39;20.70;67.60
48998;DHT22;34807;51.456;7.244;2022-07-29T11:40:25;20.80;67.60
48998;DHT22;34807;51.456;7.244;2022-07-29T11:47:26;20.90;68.10
48998;DHT22;34807;51.456;7.244;2022-07-29T11:49:53;20.90;68.20
48998;DHT22;34807;51.456;7.244;2022-07-29T11:52:19;21.00;68.50
48998;DHT22;34807;51.456;7.244;2022-07-29T11:54:46;21.00;68.30
48998;DHT22;34807;51.456;7.244;2022-07-29T11:57:12;21.10;68.30
48998;DHT22;34807;51.456;7.244;2022-07-29T11:59:41;21.10;68.20
48998;DHT22;34807;51.456;7.244;2022-07-29T12:02:07;21.20;68.40
48998;DHT22;34807;51.456;7.244;2022-07-29T12:04:33;21.30;68.40
48998;DHT22;34807;51.456;7.244;2022-07-29T12:06:59;21.40;68.00
48998;DHT22;34807;51.456;7.244;2022-07-29T12:09:25;21.50;67.70
48998;DHT22;34807;51.456;7.244;2022-07-29T12:11:57;21.50;67.50
48998;DHT22;34807;51.456;7.244;2022-07-29T12:14:33;21.60;67.30
48998;DHT22;34807;51.456;7.244;2022-07-29T12:16:59;21.70;67.40
48998;DHT22;34807;51.456;7.244;2022-07-29T12:19:25;21.70;67.10
48998;DHT22;34807;51.456;7.244;2022-07-29T12:21:51;21.80;67.00
48998;DHT22;34807;51.456;7.244;2022-07-29T12:24:17;21.80;66.80
48998;DHT22;34807;51.456;7.244;2022-07-29T12:29:15;21.90;66.50
48998;DHT22;34807;51.456;7.244;2022-07-29T12:31:42;22.00;66.50
48998;DHT22;34807;51.456;7.244;2022-07-29T12:34:07;22.00;66.20
48998;DHT22;34807;51.456;7.244;2022-07-29T12:36:33;22.10;66.00
48998;DHT22;34807;51.456;7.244;2022-07-29T12:38:58;22.20;66.10
48998;DHT22;34807;51.456;7.244;2022-07-29T12:41:24;22.30;65.90
48998;DHT22;34807;51.456;7.244;2022-07-29T12:43:53;22.30;65.60
48998;DHT22;34807;51.456;7.244;2022-07-29T12:46:19;22.40;65.40
48998;DHT22;34807;51.456;7.244;2022-07-29T12:48:44;22.50;65.40
48998;DHT22;34807;51.456;7.244;2022-07-29T12:51:10;22.60;65.20
48998;DHT22;34807;51.456;7.244;2022-07-29T12:53:37;22.70;65.20
48998;DHT22;34807;51.456;7.244;2022-07-29T12:56:03;22.80;65.10
48998;DHT22;34807;51.456;7.244;2022-07-29T13:01:02;23.00;64.30
48998;DHT22;34807;51.456;7.244;2022-07-29T13:03:28;23.10;64.20
48998;DHT22;34807;51.456;7.244;2022-07-29T13:05:54;23.10;63.90
48998;DHT22;34807;51.456;7.244;2022-07-29T13:08:19;23.20;63.80
48998;DHT22;34807;51.456;7.244;2022-07-29T13:10:45;23.30;63.90
48998;DHT22;34807;51.456;7.244;2022-07-29T13:13:12;23.30;63.70
48998;DHT22;34807;51.456;7.244;2022-07-29T13:15:38;23.40;63.80
48998;DHT22;34807;51.456;7.244;2022-07-29T13:18:04;23.40;63.70
48998;DHT22;34807;51.456;7.244;2022-07-29T13:20:30;23.50;63.90
48998;DHT22;34807;51.456;7.244;2022-07-29T13:22:57;23.50;63.60
48998;DHT22;34807;51.456;7.244;2022-07-29T13:25:23;23.60;63.60
48998;DHT22;34807;51.456;7.244;2022-07-29T13:27:49;23.60;63.60
48998;DHT22;34807;51.456;7.244;2022-07-29T13:30:15;23.70;63.40
48998;DHT22;34807;51.456;7.244;2022-07-29T13:32:40;23.80;63.30
48998;DHT22;34807;51.456;7.244;2022-07-29T13:35:06;23.90;63.10
48998;DHT22;34807;51.456;7.244;2022-07-29T13:37:33;24.00;62.90
48998;DHT22;34807;51.456;7.244;2022-07-29T13:40:00;24.10;62.80
48998;DHT22;34807;51.456;7.244;2022-07-29T13:42:28;24.10;62.90
48998;DHT22;34807;51.456;7.244;2022-07-29T13:44:53;24.10;63.10
48998;DHT22;34807;51.456;7.244;2022-07-29T13:47:19;24.10;62.90
48998;DHT22;34807;51.456;7.244;2022-07-29T13:49:45;24.10;62.90
48998;DHT22;34807;51.456;7.244;2022-07-29T13:52:10;24.10;62.90
48998;DHT22;34807;51.456;7.244;2022-07-29T13:54:36;24.20;62.80
48998;DHT22;34807;51.456;7.244;2022-07-29T13:57:03;24.20;62.80
48998;DHT22;34807;51.456;7.244;2022-07-29T13:59:28;24.30;62.90
48998;DHT22;34807;51.456;7.244;2022-07-29T14:01:54;24.30;62.70
48998;DHT22;34807;51.456;7.244;2022-07-29T14:04:19;24.40;62.60
48998;DHT22;34807;51.456;7.244;2022-07-29T14:06:45;24.40;62.40
48998;DHT22;34807;51.456;7.244;2022-07-29T14:09:10;24.50;62.50
48998;DHT22;34807;51.456;7.244;2022-07-29T14:11:36;24.60;62.30
48998;DHT22;34807;51.456;7.244;2022-07-29T14:14:03;24.70;62.30
48998;DHT22;34807;51.456;7.244;2022-07-29T14:16:29;24.90;62.10
48998;DHT22;34807;51.456;7.244;2022-07-29T14:18:54;25.00;61.80
48998;DHT22;34807;51.456;7.244;2022-07-29T14:21:20;25.10;61.70
48998;DHT22;34807;51.456;7.244;2022-07-29T14:23:45;25.10;61.50
48998;DHT22;34807;51.456;7.244;2022-07-29T14:26:11;25.30;61.30
48998;DHT22;34807;51.456;7.244;2022-07-29T14:28:36;25.30;61.10
48998;DHT22;34807;51.456;7.244;2022-07-29T14:31:02;25.30;61.00
48998;DHT22;34807;51.456;7.244;2022-07-29T14:33:27;25.40;60.90
48998;DHT22;34807;51.456;7.244;2022-07-29T14:35:53;25.50;61.00
48998;DHT22;34807;51.456;7.244;2022-07-29T14:38:18;25.60;60.80
48998;DHT22;34807;51.456;7.244;2022-07-29T14:40:44;25.70;60.60
48998;DHT22;34807;51.456;7.244;2022-07-29T14:43:09;25.90;61.50
48998;DHT22;34807;51.456;7.244;2022-07-29T14:45:35;25.90;60.20
48998;DHT22;34807;51.456;7.244;2022-07-29T14:48:00;26.10;60.40
48998;DHT22;34807;51.456;7.244;2022-07-29T14:50:26;26.30;60.00
48998;DHT22;34807;51.456;7.244;2022-07-29T14:52:51;26.50;60.10
48998;DHT22;34807;51.456;7.244;2022-07-29T14:55:17;26.60;59.70
48998;DHT22;34807;51.456;7.244;2022-07-29T14:57:43;26.70;59.10
48998;DHT22;34807;51.456;7.244;2022-07-29T15:00:08;26.90;59.50
48998;DHT22;34807;51.456;7.244;2022-07-29T15:02:34;27.00;58.80
48998;DHT22;34807;51.456;7.244;2022-07-29T15:05:00;27.20;58.70
48998;DHT22;34807;51.456;7.244;2022-07-29T15:07:26;27.30;58.50
48998;DHT22;34807;51.456;7.244;2022-07-29T15:09:52;27.50;58.50
48998;DHT22;34807;51.456;7.244;2022-07-29T15:12:17;27.60;57.90
48998;DHT22;34807;51.456;7.244;2022-07-29T15:14:43;27.90;57.80
48998;DHT22;34807;51.456;7.244;2022-07-29T15:17:08;28.00;57.50
48998;DHT22;34807;51.456;7.244;2022-07-29T15:19:34;28.20;57.40
48998;DHT22;34807;51.456;7.244;2022-07-29T15:21:59;28.30;57.00
48998;DHT22;34807;51.456;7.244;2022-07-29T15:24:25;28.50;56.80
48998;DHT22;34807;51.456;7.244;2022-07-29T15:26:51;28.50;56.60
48998;DHT22;34807;51.456;7.244;2022-07-29T15:29:16;28.50;56.90
48998;DHT22;34807;51.456;7.244;2022-07-29T15:31:42;28.40;56.90
48998;DHT22;34807;51.456;7.244;2022-07-29T15:34:08;28.40;57.10
48998;DHT22;34807;51.456;7.244;2022-07-29T15:36:33;28.50;57.10
48998;DHT22;34807;51.456;7.244;2022-07-29T15:38:59;28.60;57.30
48998;DHT22;34807;51.456;7.244;2022-07-29T15:41:24;28.70;56.80
48998;DHT22;34807;51.456;7.244;2022-07-29T15:43:50;28.80;56.70
48998;DHT22;34807;51.456;7.244;2022-07-29T15:46:17;28.80;56.80
48998;DHT22;34807;51.456;7.244;2022-07-29T15:49:02;28.90;56.80
48998;DHT22;34807;51.456;7.244;2022-07-29T15:51:28;28.90;56.70
48998;DHT22;34807;51.456;7.244;2022-07-29T15:53:53;29.00;56.60
48998;DHT22;34807;51.456;7.244;2022-07-29T15:56:19;29.00;56.40
48998;DHT22;34807;51.456;7.244;2022-07-29T15:58:44;29.10;56.40
48998;DHT22;34807;51.456;7.244;2022-07-29T16:01:10;29.20;56.50
48998;DHT22;34807;51.456;7.244;2022-07-29T16:03:36;29.20;56.40
48998;DHT22;34807;51.456;7.244;2022-07-29T16:06:02;29.10;56.60
48998;DHT22;34807;51.456;7.244;2022-07-29T16:08:27;29.00;56.90
48998;DHT22;34807;51.456;7.244;2022-07-29T16:10:53;28.90;57.10
48998;DHT22;34807;51.456;7.244;2022-07-29T16:13:18;29.00;57.00
48998;DHT22;34807;51.456;7.244;2022-07-29T16:15:44;29.00;57.20
48998;DHT22;34807;51.456;7.244;2022-07-29T16:18:10;29.20;57.20
48998;DHT22;34807;51.456;7.244;2022-07-29T16:20:35;29.40;56.70
48998;DHT22;34807;51.456;7.244;2022-07-29T16:23:02;29.40;56.20
48998;DHT22;34807;51.456;7.244;2022-07-29T16:25:27;29.40;56.40